Time;durP1;ratioP1;P1;durP2;ratioP2;P2;SDS_P1;SDS_P2;PMS_P1;PMS_P2;Temp;Humidity;BMP_temperature;BMP_pressure;BME280_temperature;BME280_humidity;BME280_pressure;Samples;Min_cycle;Max_cycle;Signal;HPM_P1;HPM_P2
2022/11/24 00:01:05;;;;;;;61.05;6.45;;;;;;;;;;4992534;28;20035;-55
2022/11/24 00:03:32;;;;;;;50.67;6.88;;;;;;;;;;4992203;28;20042;-54
2022/11/24 00:06:09;;;;;;;45.78;6.45;;;;;;;;;;4989219;28;20186;-48
2022/11/24 00:08:37;;;;;;;56.53;7.78;;;;;;;;;;5005581;28;20054;-57
2022/11/24 00:11:08;;;;;;;43.28;6.90;;;;;;;;;;5011419;28;20482;-53
2022/11/24 00:13:37;;;;;;;58.45;7.55;;;;;;;;;;5011806;28;20034;-55
2022/11/24 00:16:11;;;;;;;77.90;10.23;;;;;;;;;;5011317;28;20145;-58
2022/11/24 00:18:38;;;;;;;82.30;9.27;;;;;;;;;;5010075;28;20053;-57
2022/11/24 00:21:05;;;;;;;93.78;10.90;;;;;;;;;;5011942;28;20097;-53
2022/11/24 00:23:32;;;;;;;63.33;8.48;;;;;;;;;;5011602;28;20022;-53
2022/11/24 00:26:07;;;;;;;58.20;8.85;;;;;;;;;;5011733;28;20030;-54
2022/11/24 00:28:34;;;;;;;61.15;8.02;;;;;;;;;;5010554;28;20496;-55
2022/11/24 00:31:01;;;;;;;45.08;7.97;;;;;;;;;;5008524;28;20030;-55
2022/11/24 00:33:28;;;;;;;60.78;8.00;;;;;;;;;;5019127;28;20377;-56
2022/11/24 00:35:56;;;;;;;75.57;10.75;;;;;;;;;;5021564;28;20038;-56
2022/11/24 00:38:23;;;;;;;89.43;10.73;;;;;;;;;;5003179;28;20037;-51
2022/11/24 00:40:50;;;;;;;92.78;11.45;;;;;;;;;;4998880;28;20031;-58
2022/11/24 00:43:18;;;;;;;74.93;10.70;;;;;;;;;;5009667;28;20026;-57
2022/11/24 00:45:45;;;;;;;82.30;10.52;;;;;;;;;;5010441;28;20030;-53
2022/11/24 00:48:12;;;;;;;141.23;15.98;;;;;;;;;;4997844;28;20049;-55
2022/11/24 00:50:39;;;;;;;168.50;22.27;;;;;;;;;;5009497;28;20110;-57
2022/11/24 00:53:06;;;;;;;132.10;18.95;;;;;;;;;;5005915;28;20096;-58
2022/11/24 00:55:33;;;;;;;163.23;18.77;;;;;;;;;;5010436;28;20034;-59
2022/11/24 00:58:00;;;;;;;107.07;17.38;;;;;;;;;;5010395;28;20038;-58
2022/11/24 01:00:27;;;;;;;122.63;17.52;;;;;;;;;;5013563;28;20044;-60
2022/11/24 01:02:54;;;;;;;119.40;19.63;;;;;;;;;;5010604;28;20025;-60
2022/11/24 01:05:21;;;;;;;124.57;21.40;;;;;;;;;;5011125;28;20104;-59
2022/11/24 01:07:48;;;;;;;146.93;24.40;;;;;;;;;;5011992;28;20065;-58
2022/11/24 01:10:15;;;;;;;132.63;22.27;;;;;;;;;;5013735;28;20468;-59
2022/11/24 01:12:42;;;;;;;127.00;23.58;;;;;;;;;;5009157;28;20033;-58
2022/11/24 01:15:09;;;;;;;126.60;23.50;;;;;;;;;;4993885;28;20026;-58
2022/11/24 01:17:36;;;;;;;138.23;25.60;;;;;;;;;;5011008;28;20038;-58
2022/11/24 01:20:03;;;;;;;140.10;25.08;;;;;;;;;;5014524;28;20030;-58
2022/11/24 01:22:31;;;;;;;131.23;25.90;;;;;;;;;;5014781;28;20481;-57
2022/11/24 01:24:58;;;;;;;137.90;24.80;;;;;;;;;;5014382;28;20039;-57
2022/11/24 01:27:25;;;;;;;129.02;24.08;;;;;;;;;;5013539;28;20022;-54
2022/11/24 01:29:52;;;;;;;152.18;25.95;;;;;;;;;;5014409;28;20400;-58
2022/11/24 01:32:19;;;;;;;174.55;25.88;;;;;;;;;;5013814;28;20500;-59
2022/11/24 01:34:46;;;;;;;144.18;24.60;;;;;;;;;;5013167;28;20050;-53
2022/11/24 01:37:13;;;;;;;126.50;24.38;;;;;;;;;;5013432;28;20037;-57
2022/11/24 01:39:40;;;;;;;145.85;24.77;;;;;;;;;;5013248;28;20071;-55
2022/11/24 01:42:07;;;;;;;130.35;24.95;;;;;;;;;;5014048;28;20118;-55
2022/11/24 01:44:34;;;;;;;149.52;25.95;;;;;;;;;;5012287;28;20036;-55
2022/11/24 01:47:27;;;;;;;143.35;25.17;;;;;;;;;;5012797;28;20030;-59
2022/11/24 01:49:56;;;;;;;129.20;25.05;;;;;;;;;;5012250;28;20091;-59
2022/11/24 01:52:29;;;;;;;147.35;26.52;;;;;;;;;;5013269;28;20033;-59
2022/11/24 01:54:57;;;;;;;119.53;23.52;;;;;;;;;;5013308;28;20018;-59
2022/11/24 01:57:30;;;;;;;114.03;22.20;;;;;;;;;;5013052;28;20026;-60
2022/11/24 02:00:02;;;;;;;107.20;22.25;;;;;;;;;;5013508;28;20025;-61
2022/11/24 02:02:29;;;;;;;115.00;22.40;;;;;;;;;;5011385;28;20034;-61
2022/11/24 02:05:03;;;;;;;113.30;22.50;;;;;;;;;;5013527;28;20505;-56
2022/11/24 02:07:30;;;;;;;111.85;22.23;;;;;;;;;;5018846;28;20029;-61
2022/11/24 02:10:02;;;;;;;114.90;23.10;;;;;;;;;;5019289;28;20057;-59
2022/11/24 02:12:29;;;;;;;;;;;;;;;;;;5013579;28;20022;-61
2022/11/24 02:14:56;;;;;;;99.90;21.80;;;;;;;;;;5009438;28;19909;-61
2022/11/24 02:17:23;;;;;;;106.75;22.42;;;;;;;;;;5012146;28;20057;-61
2022/11/24 02:20:00;;;;;;;110.40;23.23;;;;;;;;;;5012378;28;20022;-60
2022/11/24 02:22:34;;;;;;;104.20;21.25;;;;;;;;;;5012058;28;20496;-60
2022/11/24 02:25:01;;;;;;;114.68;23.58;;;;;;;;;;5003255;28;20042;-61
2022/11/24 02:27:28;;;;;;;104.65;22.38;;;;;;;;;;5004687;28;20199;-61
2022/11/24 02:29:54;;;;;;;114.03;22.50;;;;;;;;;;5002720;28;20484;-60
2022/11/24 02:32:22;;;;;;;100.43;20.88;;;;;;;;;;5002937;28;20018;-60
2022/11/24 02:34:49;;;;;;;89.85;20.55;;;;;;;;;;5004156;28;20080;-60
2022/11/24 02:37:16;;;;;;;98.85;22.50;;;;;;;;;;5002783;28;20064;-60
2022/11/24 02:39:43;;;;;;;92.22;21.20;;;;;;;;;;5002818;28;20026;-60
2022/11/24 02:42:12;;;;;;;88.20;20.75;;;;;;;;;;5001218;28;20061;-61
2022/11/24 02:44:41;;;;;;;90.50;19.65;;;;;;;;;;4996376;28;20038;-61
2022/11/24 02:47:09;;;;;;;103.97;21.60;;;;;;;;;;4993703;28;20081;-61
2022/11/24 02:49:37;;;;;;;84.50;19.17;;;;;;;;;;4993802;28;20122;-61
2022/11/24 02:52:04;;;;;;;90.93;21.27;;;;;;;;;;4993635;28;20030;-61
2022/11/24 02:54:31;;;;;;;80.45;20.83;;;;;;;;;;4993664;28;20018;-61
2022/11/24 02:56:58;;;;;;;86.65;20.25;;;;;;;;;;4993535;28;20080;-61
2022/11/24 02:59:25;;;;;;;69.90;17.65;;;;;;;;;;4993479;28;20050;-61
2022/11/24 03:01:52;;;;;;;76.75;18.83;;;;;;;;;;4993475;28;20484;-61
2022/11/24 03:04:19;;;;;;;66.90;17.20;;;;;;;;;;4993366;28;20439;-61
2022/11/24 03:06:46;;;;;;;90.63;18.88;;;;;;;;;;4993555;28;20401;-61
2022/11/24 03:09:13;;;;;;;75.38;19.52;;;;;;;;;;4993131;28;20189;-61
2022/11/24 03:11:40;;;;;;;76.00;18.15;;;;;;;;;;4993314;28;20373;-61
2022/11/24 03:14:07;;;;;;;77.85;19.23;;;;;;;;;;4992230;28;20447;-61
2022/11/24 03:16:34;;;;;;;64.75;18.25;;;;;;;;;;4993390;28;20026;-61
2022/11/24 03:19:02;;;;;;;67.75;17.02;;;;;;;;;;4993214;28;20035;-61
2022/11/24 03:21:29;;;;;;;73.30;18.48;;;;;;;;;;4993128;28;20046;-61
2022/11/24 03:23:56;;;;;;;60.78;15.95;;;;;;;;;;4993380;28;20508;-61
2022/11/24 03:26:24;;;;;;;71.43;16.58;;;;;;;;;;4993326;28;20022;-61
2022/11/24 03:28:57;;;;;;;68.05;17.58;;;;;;;;;;4993340;28;20029;-61
2022/11/24 03:31:24;;;;;;;60.05;16.02;;;;;;;;;;4993214;28;20397;-61
2022/11/24 03:33:51;;;;;;;72.07;17.02;;;;;;;;;;4993212;28;20053;-61
2022/11/24 03:36:18;;;;;;;53.50;15.45;;;;;;;;;;4993267;28;20076;-61
2022/11/24 03:38:45;;;;;;;57.28;17.20;;;;;;;;;;4993104;28;20034;-61
2022/11/24 03:41:12;;;;;;;60.10;16.42;;;;;;;;;;4992998;28;20034;-61
2022/11/24 03:43:39;;;;;;;64.80;17.00;;;;;;;;;;4993072;28;20038;-61
2022/11/24 03:46:06;;;;;;;59.75;16.05;;;;;;;;;;4993071;28;20145;-60
2022/11/24 03:48:33;;;;;;;60.80;15.77;;;;;;;;;;4993167;28;20026;-61
2022/11/24 03:51:02;;;;;;;54.90;15.80;;;;;;;;;;4993012;28;20065;-61
2022/11/24 03:53:30;;;;;;;60.38;16.13;;;;;;;;;;4993012;28;20476;-61
2022/11/24 03:55:57;;;;;;;57.35;15.57;;;;;;;;;;4993154;28;20033;-61
2022/11/24 03:58:24;;;;;;;51.78;15.13;;;;;;;;;;4992913;28;20030;-61
2022/11/24 04:00:52;;;;;;;57.70;15.80;;;;;;;;;;4992951;28;20555;-61
2022/11/24 04:03:20;;;;;;;54.22;14.77;;;;;;;;;;4993009;28;20022;-61
2022/11/24 04:05:47;;;;;;;49.38;14.57;;;;;;;;;;4991738;28;20483;-61
2022/11/24 04:08:14;;;;;;;52.75;15.13;;;;;;;;;;4992757;28;20038;-61
2022/11/24 04:10:41;;;;;;;46.90;13.68;;;;;;;;;;4993478;28;20373;-61
2022/11/24 04:13:13;;;;;;;51.45;13.95;;;;;;;;;;4996675;28;20027;-61
2022/11/24 04:15:41;;;;;;;61.47;14.43;;;;;;;;;;4996502;28;20049;-61
2022/11/24 04:18:08;;;;;;;40.38;13.63;;;;;;;;;;4996708;28;20440;-60
2022/11/24 04:20:35;;;;;;;50.75;13.73;;;;;;;;;;4996537;28;20072;-60
2022/11/24 04:23:02;;;;;;;52.95;13.77;;;;;;;;;;4996376;28;20026;-60
2022/11/24 04:25:29;;;;;;;48.08;13.48;;;;;;;;;;4996487;28;20445;-61
2022/11/24 04:27:56;;;;;;;45.80;12.43;;;;;;;;;;4996460;28;20041;-61
2022/11/24 04:30:24;;;;;;;47.50;13.30;;;;;;;;;;4996390;28;20030;-61
2022/11/24 04:32:51;;;;;;;36.78;13.48;;;;;;;;;;4996325;28;20141;-61
2022/11/24 04:35:18;;;;;;;45.97;12.00;;;;;;;;;;4996336;28;20057;-61
2022/11/24 04:37:46;;;;;;;41.85;12.50;;;;;;;;;;4996117;28;20034;-61
2022/11/24 04:40:13;;;;;;;42.05;12.98;;;;;;;;;;4996248;28;20500;-61
2022/11/24 04:42:40;;;;;;;43.30;11.70;;;;;;;;;;4996078;28;20022;-61
2022/11/24 04:45:07;;;;;;;47.03;12.48;;;;;;;;;;4996237;28;20053;-61
2022/11/24 04:47:35;;;;;;;37.38;12.20;;;;;;;;;;4994746;28;20037;-61
2022/11/24 04:50:03;;;;;;;36.78;11.73;;;;;;;;;;4995923;28;20023;-61
2022/11/24 04:52:30;;;;;;;39.90;10.80;;;;;;;;;;4996066;28;20120;-61
2022/11/24 04:54:57;;;;;;;36.28;11.45;;;;;;;;;;4995699;28;20037;-61
2022/11/24 04:57:25;;;;;;;35.25;11.48;;;;;;;;;;4995849;28;20030;-61
2022/11/24 04:59:53;;;;;;;36.88;11.23;;;;;;;;;;4995827;28;20030;-60
2022/11/24 05:02:20;;;;;;;35.92;11.05;;;;;;;;;;4995640;28;20026;-61
2022/11/24 05:04:47;;;;;;;30.85;10.95;;;;;;;;;;4995747;28;20049;-61
2022/11/24 05:07:14;;;;;;;35.83;10.43;;;;;;;;;;4995695;28;20030;-61
2022/11/24 05:12:30;;;;;;;35.42;10.95;;;;;;;;;;4995518;28;20052;-59
2022/11/24 05:14:58;;;;;;;33.25;10.70;;;;;;;;;;4995595;28;20567;-59
2022/11/24 05:17:28;;;;;;;34.50;9.93;;;;;;;;;;4995405;28;20374;-59
2022/11/24 05:19:55;;;;;;;29.15;9.40;;;;;;;;;;4995395;28;20444;-59
2022/11/24 05:22:22;;;;;;;32.72;10.02;;;;;;;;;;4994014;28;20026;-59
2022/11/24 05:24:49;;;;;;;25.02;8.82;;;;;;;;;;4995303;28;20097;-59
2022/11/24 05:27:16;;;;;;;30.25;9.20;;;;;;;;;;4995500;28;20058;-59
2022/11/24 05:29:43;;;;;;;28.15;9.15;;;;;;;;;;4995267;28;20034;-59
2022/11/24 05:32:10;;;;;;;27.35;9.23;;;;;;;;;;4995068;28;20033;-59
2022/11/24 05:34:37;;;;;;;30.63;9.65;;;;;;;;;;4995111;28;20029;-59
2022/11/24 05:37:04;;;;;;;34.53;9.43;;;;;;;;;;4994854;28;20118;-59
2022/11/24 05:39:32;;;;;;;28.55;10.25;;;;;;;;;;4995089;28;20503;-59
2022/11/24 05:41:59;;;;;;;29.58;9.45;;;;;;;;;;4994951;28;20085;-59
2022/11/24 05:44:26;;;;;;;28.92;8.57;;;;;;;;;;4995003;28;20515;-59
2022/11/24 05:46:53;;;;;;;25.27;8.23;;;;;;;;;;4994986;28;20033;-59
2022/11/24 05:49:20;;;;;;;25.55;8.20;;;;;;;;;;4994928;28;20031;-59
2022/11/24 05:51:47;;;;;;;22.98;8.07;;;;;;;;;;4994673;28;20031;-59
2022/11/24 05:54:13;;;;;;;25.73;9.30;;;;;;;;;;4994880;28;20105;-59
2022/11/24 05:56:40;;;;;;;22.67;8.32;;;;;;;;;;4994698;28;20038;-59
2022/11/24 05:59:07;;;;;;;20.55;7.78;;;;;;;;;;4994649;28;20031;-59
2022/11/24 06:01:34;;;;;;;23.50;9.07;;;;;;;;;;5008641;28;20368;-59
2022/11/24 06:04:01;;;;;;;21.33;8.75;;;;;;;;;;5034043;28;20472;-59
2022/11/24 06:06:28;;;;;;;25.42;8.35;;;;;;;;;;5032459;28;20029;-59
2022/11/24 06:08:55;;;;;;;23.27;8.65;;;;;;;;;;5033610;28;20057;-59
2022/11/24 06:11:22;;;;;;;26.92;8.25;;;;;;;;;;5033598;28;20075;-59
2022/11/24 06:13:49;;;;;;;22.98;7.85;;;;;;;;;;5033339;28;20870;-59
2022/11/24 06:16:19;;;;;;;20.38;8.32;;;;;;;;;;5033643;28;20480;-59
2022/11/24 06:18:46;;;;;;;25.15;8.23;;;;;;;;;;5033880;28;20087;-59
2022/11/24 06:21:13;;;;;;;24.65;8.35;;;;;;;;;;5033304;28;20041;-59
2022/11/24 06:23:40;;;;;;;21.65;7.60;;;;;;;;;;5033501;28;20037;-61
2022/11/24 06:26:08;;;;;;;20.67;8.32;;;;;;;;;;5033451;28;20032;-61
2022/11/24 06:28:35;;;;;;;24.75;8.38;;;;;;;;;;5033260;28;20057;-60
2022/11/24 06:31:03;;;;;;;19.10;5.97;;;;;;;;;;5033207;28;20036;-61
2022/11/24 06:33:31;;;;;;;13.32;5.45;;;;;;;;;;5033053;28;20053;-61
2022/11/24 06:36:05;;;;;;;17.15;6.05;;;;;;;;;;5033167;28;20033;-61
2022/11/24 06:38:33;;;;;;;14.88;6.15;;;;;;;;;;5033178;28;20040;-60
2022/11/24 06:41:05;;;;;;;15.82;5.88;;;;;;;;;;5033097;28;20108;-61
2022/11/24 06:43:32;;;;;;;15.70;5.82;;;;;;;;;;5033073;28;20026;-61
2022/11/24 06:45:59;;;;;;;14.63;5.72;;;;;;;;;;5033036;28;20029;-60
2022/11/24 06:48:26;;;;;;;18.92;5.35;;;;;;;;;;5029050;28;20087;-61
2022/11/24 06:50:53;;;;;;;14.98;5.30;;;;;;;;;;5033035;28;20053;-61
2022/11/24 06:53:20;;;;;;;11.95;5.07;;;;;;;;;;5032493;28;20044;-60
2022/11/24 06:55:47;;;;;;;20.65;5.55;;;;;;;;;;5032836;28;20041;-60
2022/11/24 06:58:14;;;;;;;17.80;5.45;;;;;;;;;;5032619;28;20045;-61
2022/11/24 07:00:42;;;;;;;18.13;5.75;;;;;;;;;;4999021;28;20118;-59
2022/11/24 07:03:14;;;;;;;20.50;6.50;;;;;;;;;;4993526;28;20031;-59
2022/11/24 07:05:41;;;;;;;16.95;5.57;;;;;;;;;;4993434;28;20027;-59
2022/11/24 07:08:08;;;;;;;17.40;6.25;;;;;;;;;;4993322;28;20054;-59
2022/11/24 07:10:35;;;;;;;14.23;5.60;;;;;;;;;;4993363;28;20070;-59
2022/11/24 07:13:05;;;;;;;15.30;5.78;;;;;;;;;;4993102;28;20397;-60
2022/11/24 07:15:32;;;;;;;13.25;5.82;;;;;;;;;;4993398;28;20094;-61
2022/11/24 07:17:58;;;;;;;15.25;5.45;;;;;;;;;;4993098;28;20034;-59
2022/11/24 07:20:26;;;;;;;13.95;5.68;;;;;;;;;;4993332;28;20034;-59
2022/11/24 07:22:56;;;;;;;14.05;6.00;;;;;;;;;;4993283;28;20073;-59
2022/11/24 07:25:24;;;;;;;14.13;5.63;;;;;;;;;;4993221;28;20026;-59
2022/11/24 07:28:00;;;;;;;16.17;5.88;;;;;;;;;;4993312;28;20497;-59
2022/11/24 07:30:27;;;;;;;11.55;5.30;;;;;;;;;;4993239;28;20026;-59
2022/11/24 07:33:01;;;;;;;12.98;5.45;;;;;;;;;;4993145;28;20065;-59
2022/11/24 07:35:28;;;;;;;14.70;5.50;;;;;;;;;;4993142;28;20480;-60
2022/11/24 07:37:56;;;;;;;16.33;5.65;;;;;;;;;;4993143;28;20049;-60
2022/11/24 07:40:24;;;;;;;14.00;6.18;;;;;;;;;;4993249;28;20027;-61
2022/11/24 07:42:50;;;;;;;11.48;4.95;;;;;;;;;;4992984;28;20424;-60
2022/11/24 07:45:17;;;;;;;12.85;5.20;;;;;;;;;;4993128;28;20034;-60
2022/11/24 07:47:44;;;;;;;13.20;5.35;;;;;;;;;;4997179;28;20105;-61
2022/11/24 07:50:11;;;;;;;13.05;5.35;;;;;;;;;;4997050;28;20030;-61
2022/11/24 07:52:38;;;;;;;12.35;5.38;;;;;;;;;;4996857;28;20034;-61
2022/11/24 07:55:06;;;;;;;12.13;5.18;;;;;;;;;;4997025;28;20084;-61
2022/11/24 07:57:33;;;;;;;10.30;4.78;;;;;;;;;;4996907;28;20473;-61
2022/11/24 08:00:00;;;;;;;11.45;4.78;;;;;;;;;;4996969;28;20042;-60
2022/11/24 08:02:27;;;;;;;9.30;4.60;;;;;;;;;;4996741;28;20026;-61
2022/11/24 08:04:54;;;;;;;11.48;4.82;;;;;;;;;;4996843;28;20054;-61
2022/11/24 08:07:21;;;;;;;12.77;4.88;;;;;;;;;;4996721;28;20077;-61
2022/11/24 08:09:49;;;;;;;10.30;4.40;;;;;;;;;;4996515;28;20050;-61
2022/11/24 08:12:20;;;;;;;12.02;4.97;;;;;;;;;;4996780;28;20105;-60
2022/11/24 08:14:49;;;;;;;12.15;4.35;;;;;;;;;;4999894;28;20073;-60
2022/11/24 08:17:16;;;;;;;10.40;4.00;;;;;;;;;;5016144;28;20492;-61
2022/11/24 08:19:44;;;;;;;12.13;4.60;;;;;;;;;;5016136;28;20100;-60
2022/11/24 08:22:11;;;;;;;10.15;4.13;;;;;;;;;;5015975;28;20022;-61
2022/11/24 08:24:39;;;;;;;11.65;4.65;;;;;;;;;;5015981;28;20022;-61
2022/11/24 08:27:06;;;;;;;11.02;3.70;;;;;;;;;;5016011;28;20030;-61
2022/11/24 08:29:33;;;;;;;11.52;3.70;;;;;;;;;;5015909;28;20022;-59
2022/11/24 08:32:00;;;;;;;8.88;3.75;;;;;;;;;;5015827;28;20029;-59
2022/11/24 08:34:27;;;;;;;8.55;3.30;;;;;;;;;;5015909;28;20097;-59
2022/11/24 08:36:54;;;;;;;7.03;3.28;;;;;;;;;;5015867;28;20018;-59
2022/11/24 08:39:21;;;;;;;9.00;4.03;;;;;;;;;;5015667;28;20080;-59
2022/11/24 08:41:48;;;;;;;10.43;3.50;;;;;;;;;;5015638;28;20030;-59
2022/11/24 08:44:17;;;;;;;10.18;3.63;;;;;;;;;;5015644;28;20096;-59
2022/11/24 08:46:45;;;;;;;7.95;3.70;;;;;;;;;;5015673;28;20033;-59
2022/11/24 08:49:15;;;;;;;9.32;3.67;;;;;;;;;;5015563;28;20416;-59
2022/11/24 08:51:42;;;;;;;8.90;3.58;;;;;;;;;;5015358;28;20022;-60
2022/11/24 08:54:12;;;;;;;9.57;3.97;;;;;;;;;;5015490;28;20033;-59
2022/11/24 08:56:39;;;;;;;11.30;4.30;;;;;;;;;;5015120;28;20423;-59
2022/11/24 08:59:06;;;;;;;8.80;3.67;;;;;;;;;;5015332;28;20076;-59
2022/11/24 09:01:33;;;;;;;9.77;3.55;;;;;;;;;;5015143;28;20049;-59
2022/11/24 09:04:00;;;;;;;10.55;4.30;;;;;;;;;;5015315;28;20026;-59
2022/11/24 09:06:31;;;;;;;8.85;3.70;;;;;;;;;;5015237;28;20253;-59
2022/11/24 09:08:59;;;;;;;8.13;3.42;;;;;;;;;;5014918;28;20053;-59
2022/11/24 09:11:26;;;;;;;10.10;3.58;;;;;;;;;;5015124;28;20029;-59
2022/11/24 09:13:54;;;;;;;7.40;3.50;;;;;;;;;;5013810;28;20026;-59
2022/11/24 09:16:22;;;;;;;8.48;3.85;;;;;;;;;;5014961;28;20022;-59
2022/11/24 09:18:54;;;;;;;9.27;4.15;;;;;;;;;;5014801;28;20052;-59
2022/11/24 09:21:21;;;;;;;;;;;;;;;;;;4998775;28;20045;-60
2022/11/24 09:23:49;;;;;;;6.80;3.42;;;;;;;;;;4995415;28;19916;-59
2022/11/24 09:26:17;;;;;;;6.90;3.05;;;;;;;;;;4995674;28;20027;-59
2022/11/24 09:28:44;;;;;;;7.60;2.92;;;;;;;;;;4995105;28;20057;-59
2022/11/24 09:31:12;;;;;;;6.28;3.42;;;;;;;;;;4995153;28;20062;-59
2022/11/24 09:33:40;;;;;;;7.18;3.10;;;;;;;;;;4995240;28;20060;-59
2022/11/24 09:36:07;;;;;;;7.85;3.30;;;;;;;;;;4995202;28;20026;-59
2022/11/24 09:38:34;;;;;;;7.40;2.78;;;;;;;;;;4995005;28;20030;-59
2022/11/24 09:41:23;;;;;;;7.90;3.10;;;;;;;;;;4994878;28;20034;-59
2022/11/24 09:44:05;;;;;;;9.23;3.55;;;;;;;;;;4993658;28;20030;-59
2022/11/24 09:47:07;;;;;;;5.70;2.67;;;;;;;;;;4995002;28;20026;-59
2022/11/24 09:49:47;;;;;;;6.32;3.13;;;;;;;;;;4973250;28;20023;-60
2022/11/24 09:52:16;;;;;;;5.18;3.00;;;;;;;;;;4991779;28;20039;-60
2022/11/24 09:54:53;;;;;;;8.55;3.13;;;;;;;;;;4994841;28;20511;-60
2022/11/24 09:57:21;;;;;;;7.25;3.08;;;;;;;;;;5008210;28;20072;-61
2022/11/24 09:59:48;;;;;;;8.88;2.90;;;;;;;;;;5012255;28;20080;-62
2022/11/24 10:02:15;;;;;;;11.77;2.50;;;;;;;;;;5011619;28;20032;-60
2022/11/24 10:04:44;;;;;;;12.77;3.03;;;;;;;;;;5012026;28;20050;-59
2022/11/24 10:07:37;;;;;;;12.65;3.00;;;;;;;;;;5010473;28;20022;-61
2022/11/24 10:10:10;;;;;;;6.25;2.38;;;;;;;;;;5011809;28;20121;-60
2022/11/24 10:12:55;;;;;;;6.60;2.67;;;;;;;;;;5011407;28;20084;-61
2022/11/24 10:15:31;;;;;;;4.85;2.10;;;;;;;;;;5011445;28;20018;-59
2022/11/24 10:17:58;;;;;;;10.20;2.70;;;;;;;;;;5011252;28;20044;-62
2022/11/24 10:20:31;;;;;;;8.27;2.80;;;;;;;;;;5012206;28;20014;-62
2022/11/24 10:23:06;;;;;;;8.15;2.50;;;;;;;;;;5011548;28;20046;-59
2022/11/24 10:25:48;;;;;;;9.48;2.72;;;;;;;;;;4998056;28;20380;-60
2022/11/24 10:28:16;;;;;;;7.32;2.40;;;;;;;;;;5006640;28;20025;-59
2022/11/24 10:30:42;;;;;;;9.45;2.92;;;;;;;;;;5011229;28;20435;-59
2022/11/24 10:33:21;;;;;;;8.65;2.70;;;;;;;;;;5012174;28;20392;-60
2022/11/24 10:35:51;;;;;;;7.68;3.08;;;;;;;;;;5009393;28;20140;-59
2022/11/24 10:38:21;;;;;;;11.07;3.20;;;;;;;;;;5010913;28;20038;-58
2022/11/24 10:40:50;;;;;;;7.88;2.83;;;;;;;;;;5011974;28;20037;-58
2022/11/24 10:43:17;;;;;;;8.13;3.10;;;;;;;;;;5011694;28;20037;-57
2022/11/24 10:45:44;;;;;;;5.93;3.10;;;;;;;;;;5008341;28;20942;-58
2022/11/24 10:48:20;;;;;;;12.13;2.65;;;;;;;;;;5011399;28;20090;-57
2022/11/24 10:50:47;;;;;;;7.55;2.67;;;;;;;;;;5008383;28;20041;-58
2022/11/24 10:53:14;;;;;;;8.25;2.63;;;;;;;;;;5011173;28;20111;-59
2022/11/24 10:55:56;;;;;;;8.63;2.65;;;;;;;;;;5011208;28;20149;-58
2022/11/24 10:58:28;;;;;;;9.07;2.45;;;;;;;;;;5011514;28;20041;-57
2022/11/24 11:00:54;;;;;;;;;;;;;;;;;;5011153;28;20468;-58
2022/11/24 11:03:23;;;;;;;12.00;2.85;;;;;;;;;;5010568;28;19912;-58
2022/11/24 11:05:50;;;;;;;8.32;2.33;;;;;;;;;;5011151;28;20365;-58
2022/11/24 11:08:21;;;;;;;7.47;2.33;;;;;;;;;;5011272;28;20427;-57
2022/11/24 11:10:50;;;;;;;10.40;2.35;;;;;;;;;;5009305;28;20550;-55
2022/11/24 11:13:28;;;;;;;9.10;2.40;;;;;;;;;;5010464;28;20034;-58
2022/11/24 11:15:56;;;;;;;8.70;2.60;;;;;;;;;;5008128;28;20041;-55
2022/11/24 11:18:27;;;;;;;11.48;2.67;;;;;;;;;;5011553;28;20121;-60
2022/11/24 11:21:00;;;;;;;12.55;2.33;;;;;;;;;;5011975;28;20073;-58
2022/11/24 11:23:37;;;;;;;8.68;2.60;;;;;;;;;;5004649;28;20361;-58
2022/11/24 11:26:22;;;;;;;13.90;2.38;;;;;;;;;;4990718;28;20484;-58
2022/11/24 11:29:07;;;;;;;8.35;2.65;;;;;;;;;;4992226;28;20130;-58
2022/11/24 11:31:37;;;;;;;10.20;2.33;;;;;;;;;;4992119;28;20500;-60
2022/11/24 11:34:10;;;;;;;10.95;2.50;;;;;;;;;;4992485;28;20388;-60
2022/11/24 11:36:42;;;;;;;14.88;2.53;;;;;;;;;;4989708;28;20113;-59
2022/11/24 11:39:29;;;;;;;9.20;2.72;;;;;;;;;;4991967;28;20046;-59
2022/11/24 11:42:31;;;;;;;18.00;2.47;;;;;;;;;;4992056;28;20030;-58
2022/11/24 11:44:58;;;;;;;15.50;2.17;;;;;;;;;;4989266;28;20054;-55
2022/11/24 11:47:27;;;;;;;15.68;2.70;;;;;;;;;;5005989;28;20042;-56
2022/11/24 11:49:54;;;;;;;16.10;2.60;;;;;;;;;;5011650;28;20034;-57
2022/11/24 11:52:30;;;;;;;12.00;2.45;;;;;;;;;;5011447;28;20034;-58
2022/11/24 11:55:17;;;;;;;12.73;3.08;;;;;;;;;;5011370;28;20030;-59
2022/11/24 11:57:55;;;;;;;17.25;2.33;;;;;;;;;;5007684;28;20073;-50
2022/11/24 12:00:22;;;;;;;19.17;2.58;;;;;;;;;;5010766;28;20565;-58
2022/11/24 12:02:58;;;;;;;18.95;2.30;;;;;;;;;;5009553;28;20056;-59
2022/11/24 12:05:34;;;;;;;13.02;2.70;;;;;;;;;;4997108;28;20030;-58
2022/11/24 12:08:31;;;;;;;22.65;2.90;;;;;;;;;;4990117;28;20072;-59
2022/11/24 12:11:21;;;;;;;38.65;3.15;;;;;;;;;;4989702;28;20611;-54
2022/11/24 12:14:06;;;;;;;25.85;2.80;;;;;;;;;;4992008;28;20031;-52
2022/11/24 12:16:44;;;;;;;27.25;3.20;;;;;;;;;;4990629;28;20045;-59
2022/11/24 12:19:14;;;;;;;20.70;2.90;;;;;;;;;;4991284;28;20038;-57
2022/11/24 12:22:01;;;;;;;16.92;2.15;;;;;;;;;;4991372;28;20034;-56
2022/11/24 12:24:34;;;;;;;10.35;2.40;;;;;;;;;;4990168;28;20254;-57
2022/11/24 12:27:14;;;;;;;17.63;2.60;;;;;;;;;;4990934;28;20054;-55
2022/11/24 12:29:41;;;;;;;18.38;2.28;;;;;;;;;;4990778;28;20488;-53
2022/11/24 12:32:11;;;;;;;22.65;2.63;;;;;;;;;;4993072;28;20551;-56
2022/11/24 12:34:47;;;;;;;18.83;2.50;;;;;;;;;;4997842;28;20034;-60
2022/11/24 12:37:17;;;;;;;28.45;3.30;;;;;;;;;;5014049;28;20030;-58
2022/11/24 12:39:49;;;;;;;22.15;2.90;;;;;;;;;;5014351;28;20029;-58
2022/11/24 12:42:26;;;;;;;17.75;2.53;;;;;;;;;;5014444;28;20080;-59
2022/11/24 12:45:11;;;;;;;19.15;2.75;;;;;;;;;;5014301;28;20083;-59
2022/11/24 12:47:39;;;;;;;29.17;3.30;;;;;;;;;;5014497;28;20041;-59
2022/11/24 12:50:10;;;;;;;26.00;2.75;;;;;;;;;;5013657;28;20037;-58
2022/11/24 12:53:02;;;;;;;24.45;2.83;;;;;;;;;;5014590;28;20038;-58
2022/11/24 12:55:32;;;;;;;27.80;2.97;;;;;;;;;;5014227;28;20395;-58
2022/11/24 12:58:17;;;;;;;16.23;2.53;;;;;;;;;;5013540;28;20305;-60
2022/11/24 13:00:44;;;;;;;17.33;2.42;;;;;;;;;;5013506;28;20030;-60
2022/11/24 13:03:11;;;;;;;19.08;2.75;;;;;;;;;;5013653;28;20048;-58
2022/11/24 13:05:58;;;;;;;15.70;2.15;;;;;;;;;;5013978;28;20455;-57
2022/11/24 13:08:26;;;;;;;27.15;2.42;;;;;;;;;;5014492;28;20038;-58
2022/11/24 13:10:54;;;;;;;18.42;2.15;;;;;;;;;;5014389;28;20033;-57
2022/11/24 13:13:23;;;;;;;19.83;2.50;;;;;;;;;;4993934;28;20073;-59
2022/11/24 13:15:53;;;;;;;12.88;2.78;;;;;;;;;;4994492;28;20038;-56
2022/11/24 13:18:38;;;;;;;27.83;2.63;;;;;;;;;;4993711;28;20050;-57
2022/11/24 13:21:25;;;;;;;22.58;2.53;;;;;;;;;;4993308;28;20109;-49
2022/11/24 13:23:58;;;;;;;17.55;2.70;;;;;;;;;;4993628;28;20070;-58
2022/11/24 13:26:43;;;;;;;19.65;2.05;;;;;;;;;;4994325;28;20053;-56
2022/11/24 13:29:30;;;;;;;10.70;1.77;;;;;;;;;;4992976;28;20033;-55
2022/11/24 13:32:03;;;;;;;24.88;2.83;;;;;;;;;;4993986;28;20038;-57
2022/11/24 13:34:39;;;;;;;15.65;2.35;;;;;;;;;;4993568;28;20030;-56
2022/11/24 13:37:24;;;;;;;14.73;2.17;;;;;;;;;;4993648;28;20485;-53
2022/11/24 13:39:53;;;;;;;11.80;2.47;;;;;;;;;;4993513;28;20038;-55
2022/11/24 13:42:24;;;;;;;17.63;2.55;;;;;;;;;;4993153;28;20542;-52
2022/11/24 13:44:52;;;;;;;14.38;2.10;;;;;;;;;;4992861;28;20207;-52
2022/11/24 13:47:30;;;;;;;16.55;2.47;;;;;;;;;;4994370;28;20049;-55
2022/11/24 13:49:57;;;;;;;9.95;1.85;;;;;;;;;;4992613;28;20048;-56
2022/11/24 13:52:39;;;;;;;17.02;2.10;;;;;;;;;;4993130;28;20038;-55
2022/11/24 13:55:12;;;;;;;11.75;1.90;;;;;;;;;;4994169;28;20533;-58
2022/11/24 13:57:40;;;;;;;10.45;1.73;;;;;;;;;;4993305;28;20093;-52
2022/11/24 14:00:24;;;;;;;17.50;2.80;;;;;;;;;;4993040;28;20038;-57
2022/11/24 14:02:53;;;;;;;25.98;2.60;;;;;;;;;;4992749;28;20031;-57
2022/11/24 14:05:22;;;;;;;16.77;2.30;;;;;;;;;;4993555;28;20046;-55
2022/11/24 14:07:51;;;;;;;13.52;2.33;;;;;;;;;;4993658;28;20808;-56
2022/11/24 14:10:20;;;;;;;15.63;2.20;;;;;;;;;;4993466;28;20030;-59
2022/11/24 14:12:47;;;;;;;21.05;2.50;;;;;;;;;;4991966;28;20121;-48
2022/11/24 14:15:25;;;;;;;11.27;2.00;;;;;;;;;;4993901;28;20030;-52
2022/11/24 14:17:52;;;;;;;14.75;2.65;;;;;;;;;;4993458;28;20042;-54
2022/11/24 14:20:24;;;;;;;12.90;1.90;;;;;;;;;;4992875;28;20031;-52
2022/11/24 14:22:51;;;;;;;13.47;2.30;;;;;;;;;;4991789;28;20109;-56
2022/11/24 14:25:26;;;;;;;14.23;2.20;;;;;;;;;;4993167;28;20651;-52
2022/11/24 14:27:54;;;;;;;13.18;1.60;;;;;;;;;;4991777;28;20031;-54
2022/11/24 14:30:21;;;;;;;11.48;1.60;;;;;;;;;;4992886;28;20548;-51
2022/11/24 14:32:55;;;;;;;13.95;1.88;;;;;;;;;;4991823;28;20435;-49
2022/11/24 14:35:24;;;;;;;15.20;2.22;;;;;;;;;;4993156;28;20048;-52
2022/11/24 14:37:52;;;;;;;16.25;2.70;;;;;;;;;;4993334;28;20046;-56
2022/11/24 14:40:39;;;;;;;14.93;2.42;;;;;;;;;;4992413;28;20066;-57
2022/11/24 14:43:15;;;;;;;14.73;1.88;;;;;;;;;;4991417;28;20038;-55
2022/11/24 14:45:54;;;;;;;23.67;2.13;;;;;;;;;;4991395;28;20456;-56